createdAt,value
2019-03-23T00:00:10.727Z,6.83
2019-03-23T00:02:39.838Z,8.40
2019-03-23T00:05:09.131Z,8.20
2019-03-23T00:07:38.298Z,7.13
2019-03-23T00:10:08.410Z,6.30
2019-03-23T00:12:37.547Z,7.10
2019-03-23T00:15:09.242Z,7.33
2019-03-23T00:17:38.214Z,8.20
2019-03-23T00:20:08.023Z,6.70
2019-03-23T00:22:37.169Z,7.90
2019-03-23T00:25:06.993Z,7.77
2019-03-23T00:27:36.079Z,7.17
2019-03-23T00:30:07.823Z,9.27
2019-03-23T00:32:37.002Z,7.80
2019-03-23T00:35:07.763Z,6.87
2019-03-23T00:37:36.886Z,7.30
2019-03-23T00:40:08.157Z,7.23
2019-03-23T00:42:37.205Z,11.90
2019-03-23T00:45:07.410Z,8.27
2019-03-23T00:47:36.403Z,8.37
2019-03-23T00:50:06.823Z,7.80
2019-03-23T00:52:35.793Z,9.07
2019-03-23T00:55:07.726Z,7.93
2019-03-23T00:57:36.743Z,9.70
2019-03-23T01:00:10.750Z,9.17
2019-03-23T01:02:41.927Z,8.40
2019-03-23T01:05:11.197Z,8.60
2019-03-23T01:07:40.355Z,10.20
2019-03-23T01:10:13.718Z,8.73
2019-03-23T01:12:42.722Z,7.83
2019-03-23T01:15:13.323Z,7.80
2019-03-23T01:17:43.853Z,11.70
2019-03-23T01:20:13.960Z,8.10
2019-03-23T01:22:42.990Z,8.20
2019-03-23T01:25:12.787Z,8.53
2019-03-23T01:27:41.864Z,7.73
2019-03-23T01:30:14.721Z,12.73
2019-03-23T01:32:43.739Z,7.33
2019-03-23T01:35:12.835Z,7.27
2019-03-23T01:37:41.867Z,8.57
2019-03-23T01:40:10.962Z,8.40
2019-03-23T01:42:40.119Z,8.30
2019-03-23T01:45:13.725Z,8.43
2019-03-23T01:47:42.898Z,10.60
2019-03-23T01:50:12.604Z,9.57
2019-03-23T01:52:42.434Z,8.47
2019-03-23T01:55:11.542Z,7.13
2019-03-23T01:57:40.530Z,8.40
2019-03-23T02:00:12.015Z,8.17
2019-03-23T02:02:41.030Z,10.37
2019-03-23T02:05:10.418Z,7.37
2019-03-23T02:07:39.447Z,8.70
2019-03-23T02:10:10.862Z,8.40
2019-03-23T02:12:39.914Z,8.33
2019-03-23T02:15:10.911Z,7.23
2019-03-23T02:17:39.938Z,7.00
2019-03-23T02:20:11.334Z,7.20
2019-03-23T02:22:40.360Z,7.63
2019-03-23T02:25:10.189Z,7.33
2019-03-23T02:27:39.174Z,7.97
2019-03-23T02:30:13.855Z,7.87
2019-03-23T02:32:42.807Z,8.50
2019-03-23T02:35:11.943Z,7.77
2019-03-23T02:37:40.988Z,7.03
2019-03-23T02:40:10.799Z,8.13
2019-03-23T02:42:39.763Z,7.53
2019-03-23T02:45:10.664Z,7.17
2019-03-23T02:47:39.782Z,7.33
2019-03-23T02:50:10.097Z,7.93
2019-03-23T02:52:39.119Z,8.47
2019-03-23T02:55:09.535Z,8.13
2019-03-23T02:57:38.667Z,6.60
2019-03-23T03:00:15.133Z,7.20
2019-03-23T03:02:44.163Z,8.00
2019-03-23T03:05:13.507Z,8.70
2019-03-23T03:07:43.761Z,7.47
2019-03-23T03:10:16.404Z,6.90
2019-03-23T03:12:45.471Z,7.47
2019-03-23T03:15:14.470Z,10.97
2019-03-23T03:17:43.428Z,8.80
2019-03-23T03:20:12.573Z,9.43
2019-03-23T03:22:41.643Z,7.17
2019-03-23T03:25:10.678Z,7.57
2019-03-23T03:27:39.646Z,8.00
2019-03-23T03:30:10.833Z,7.23
2019-03-23T03:32:39.880Z,10.07
2019-03-23T03:35:09.191Z,8.97
2019-03-23T03:37:38.211Z,8.23
2019-03-23T03:40:08.820Z,7.27
2019-03-23T03:42:37.871Z,6.63
2019-03-23T03:45:08.214Z,8.80
2019-03-23T03:47:40.799Z,7.80
2019-03-23T03:50:08.697Z,8.00
2019-03-23T03:52:37.650Z,10.23
2019-03-23T03:55:07.683Z,9.53
2019-03-23T03:57:36.703Z,8.60
2019-03-23T04:00:09.926Z,9.40
2019-03-23T04:02:39.274Z,7.83
2019-03-23T04:05:08.459Z,10.87
2019-03-23T04:07:37.474Z,9.30
2019-03-23T04:10:10.805Z,9.30
2019-03-23T04:12:39.845Z,7.60
2019-03-23T04:15:10.233Z,9.00
2019-03-23T04:17:39.235Z,7.90
2019-03-23T04:20:09.487Z,8.00
2019-03-23T04:22:38.502Z,7.10
2019-03-23T04:25:09.736Z,9.83
2019-03-23T04:27:38.765Z,8.80
2019-03-23T04:30:10.184Z,9.17
2019-03-23T04:32:39.137Z,7.70
2019-03-23T04:35:08.554Z,9.00
2019-03-23T04:37:37.649Z,8.20
2019-03-23T04:40:09.860Z,8.23
2019-03-23T04:42:38.938Z,8.57
2019-03-23T04:45:10.242Z,9.17
2019-03-23T04:47:39.220Z,7.73
2019-03-23T04:50:10.752Z,8.63
2019-03-23T04:52:39.795Z,7.83
2019-03-23T04:55:11.149Z,7.60
2019-03-23T04:57:40.939Z,7.07
2019-03-23T05:00:18.838Z,9.87
2019-03-23T05:02:47.792Z,8.70
2019-03-23T05:05:16.844Z,7.87
2019-03-23T05:07:45.825Z,8.03
2019-03-23T05:10:15.246Z,8.50
2019-03-23T05:12:44.218Z,8.40
2019-03-23T05:15:13.329Z,11.90
2019-03-23T05:17:42.420Z,8.43
2019-03-23T05:20:14.594Z,7.73
2019-03-23T05:22:43.728Z,9.93
2019-03-23T05:25:29.423Z,7.67
2019-03-23T05:27:58.989Z,9.13
2019-03-23T05:30:28.172Z,8.93
2019-03-23T05:32:57.207Z,8.80
2019-03-23T05:35:27.173Z,8.93
2019-03-23T05:37:56.174Z,8.13
2019-03-23T05:40:25.170Z,9.20
2019-03-23T05:42:54.121Z,7.90
2019-03-23T05:45:23.110Z,11.90
2019-03-23T05:47:52.135Z,9.53
2019-03-23T05:50:21.367Z,10.63
2019-03-23T05:52:50.335Z,7.40
2019-03-23T05:55:19.373Z,10.87
2019-03-23T05:57:48.327Z,7.90
2019-03-23T06:00:18.855Z,9.40
2019-03-23T06:02:47.806Z,9.13
2019-03-23T06:05:16.902Z,9.90
2019-03-23T06:07:45.858Z,9.27
2019-03-23T06:10:14.827Z,8.83
2019-03-23T06:12:43.786Z,7.87
2019-03-23T06:15:12.898Z,11.23
2019-03-23T06:17:41.861Z,10.13
2019-03-23T06:20:11.073Z,8.20
2019-03-23T06:22:40.200Z,11.07
2019-03-23T06:25:09.233Z,9.03
2019-03-23T06:27:38.214Z,8.87
2019-03-23T06:30:09.930Z,8.73
2019-03-23T06:32:38.958Z,9.23
2019-03-23T06:35:08.777Z,8.97
2019-03-23T06:37:37.855Z,10.03
2019-03-23T06:40:08.766Z,11.30
2019-03-23T06:42:37.824Z,10.80
2019-03-23T06:45:11.167Z,9.67
2019-03-23T06:47:40.143Z,10.77
2019-03-23T06:50:12.952Z,11.63
2019-03-23T06:52:41.998Z,11.40
2019-03-23T06:55:11.521Z,12.33
2019-03-23T06:57:40.491Z,13.67
2019-03-23T07:00:14.827Z,13.50
2019-03-23T07:02:43.857Z,14.63
2019-03-23T07:05:13.683Z,13.67
2019-03-23T07:07:42.725Z,14.03
2019-03-23T07:10:13.498Z,12.77
2019-03-23T07:12:42.568Z,13.27
2019-03-23T07:15:19.941Z,13.40
2019-03-23T07:17:43.190Z,17.70
2019-03-23T07:20:14.014Z,16.50
2019-03-23T07:22:43.003Z,16.83
2019-03-23T07:25:12.579Z,19.80
2019-03-23T07:27:41.762Z,18.23
2019-03-23T07:30:17.527Z,19.63
2019-03-23T07:32:46.570Z,14.33
2019-03-23T07:35:15.903Z,17.13
2019-03-23T07:37:44.903Z,15.77
2019-03-23T07:40:14.335Z,17.43
2019-03-23T07:42:43.370Z,14.30
2019-03-23T07:45:16.038Z,15.83
2019-03-23T07:47:45.036Z,15.07
2019-03-23T07:50:15.613Z,15.87
2019-03-23T07:52:45.305Z,15.83
2019-03-23T07:55:17.394Z,13.77
2019-03-23T07:57:46.500Z,15.37
2019-03-23T08:00:20.238Z,19.47
2019-03-23T08:02:49.194Z,19.80
2019-03-23T08:05:18.327Z,18.13
2019-03-23T08:07:47.471Z,20.87
2019-03-23T08:10:30.910Z,21.70
2019-03-23T08:13:00.475Z,22.13
2019-03-23T08:15:29.913Z,18.07
2019-03-23T08:17:58.894Z,18.87
2019-03-23T08:20:27.941Z,18.20
2019-03-23T08:22:56.918Z,21.73
2019-03-23T08:25:25.917Z,20.53
2019-03-23T08:27:54.878Z,18.80
2019-03-23T08:30:23.875Z,22.77
2019-03-23T08:32:52.846Z,29.37
2019-03-23T08:35:22.034Z,29.30
2019-03-23T08:37:51.018Z,35.13
2019-03-23T08:40:20.043Z,28.23
2019-03-23T08:42:49.015Z,35.73
2019-03-23T08:45:18.079Z,30.03
2019-03-23T08:47:47.080Z,29.80
2019-03-23T08:50:16.135Z,32.57
2019-03-23T08:52:45.125Z,31.67
2019-03-23T08:55:14.098Z,27.47
2019-03-23T08:57:43.184Z,26.10
2019-03-23T09:00:12.617Z,33.43
2019-03-23T09:02:41.579Z,31.20
2019-03-23T09:05:10.708Z,28.17
2019-03-23T09:07:39.754Z,29.07
2019-03-23T09:10:09.594Z,25.90
2019-03-23T09:12:38.583Z,31.53
2019-03-23T09:15:09.589Z,29.80
2019-03-23T09:17:38.567Z,28.80
2019-03-23T09:20:10.278Z,29.33
2019-03-23T09:22:39.359Z,30.77
2019-03-23T09:25:08.554Z,29.30
2019-03-23T09:27:37.543Z,30.87
2019-03-23T09:30:09.534Z,29.83
2019-03-23T09:32:38.532Z,31.07
2019-03-23T09:35:07.582Z,32.43
2019-03-23T09:37:38.209Z,33.43
2019-03-23T09:40:11.017Z,30.83
2019-03-23T09:42:39.876Z,34.80
2019-03-23T09:45:09.596Z,31.23
2019-03-23T09:47:38.998Z,34.97
2019-03-23T09:50:10.028Z,42.97
2019-03-23T09:52:39.114Z,34.00
2019-03-23T09:55:08.545Z,33.60
2019-03-23T09:57:37.556Z,33.20
2019-03-23T10:00:09.344Z,37.83
2019-03-23T10:02:38.411Z,86.77
2019-03-23T10:05:08.432Z,33.50
2019-03-23T10:07:37.835Z,34.90
2019-03-23T10:10:07.821Z,36.60
2019-03-23T10:12:36.836Z,35.57
2019-03-23T10:15:08.370Z,53.70
2019-03-23T10:17:37.348Z,38.93
2019-03-23T10:20:07.041Z,34.63
2019-03-23T10:22:36.294Z,35.47
2019-03-23T10:25:06.431Z,32.83
2019-03-23T10:27:35.462Z,38.63
2019-03-23T10:30:06.843Z,40.90
2019-03-23T10:32:35.895Z,36.63
2019-03-23T10:35:07.116Z,39.00
2019-03-23T10:37:36.110Z,36.47
2019-03-23T10:40:09.862Z,35.70
2019-03-23T10:42:39.119Z,38.00
2019-03-23T10:45:09.669Z,40.57
2019-03-23T10:47:38.785Z,44.07
2019-03-23T10:50:08.134Z,39.93
2019-03-23T10:52:37.158Z,40.60
2019-03-23T10:55:07.279Z,31.83
2019-03-23T10:57:36.274Z,34.67
2019-03-23T11:00:11.238Z,35.10
2019-03-23T11:02:40.339Z,36.60
2019-03-23T11:05:10.154Z,38.00
2019-03-23T11:07:39.213Z,39.33
2019-03-23T11:10:10.598Z,41.20
2019-03-23T11:12:39.607Z,39.00
2019-03-23T11:15:09.422Z,37.73
2019-03-23T11:17:38.587Z,41.73
2019-03-23T11:20:10.405Z,41.17
2019-03-23T11:22:39.673Z,43.33
2019-03-23T11:25:09.881Z,42.73
2019-03-23T11:27:38.870Z,44.90
2019-03-23T11:30:10.959Z,44.27
2019-03-23T11:32:39.942Z,44.03
2019-03-23T11:35:09.249Z,40.90
2019-03-23T11:37:38.634Z,47.00
2019-03-23T11:40:10.170Z,44.43
2019-03-23T11:42:49.300Z,48.00
2019-03-23T11:45:11.691Z,43.27
2019-03-23T11:47:40.790Z,48.47
2019-03-23T11:50:10.717Z,48.00
2019-03-23T11:52:39.796Z,46.83
2019-03-23T11:55:09.522Z,47.80
2019-03-23T11:57:38.573Z,49.73
2019-03-23T12:00:17.048Z,45.13
2019-03-23T12:02:46.051Z,47.20
2019-03-23T12:05:15.095Z,56.20
2019-03-23T12:07:44.166Z,53.53
2019-03-23T12:10:14.488Z,58.10
2019-03-23T12:12:43.477Z,50.77
2019-03-23T12:15:13.286Z,48.60
2019-03-23T12:17:47.513Z,55.03
2019-03-23T12:20:16.666Z,55.13
2019-03-23T12:22:45.665Z,55.63
2019-03-23T12:25:14.979Z,51.93
2019-03-23T12:27:44.044Z,53.40
2019-03-23T12:30:17.513Z,54.90
2019-03-23T12:32:46.489Z,54.67
2019-03-23T12:35:15.452Z,49.90
2019-03-23T12:37:44.481Z,54.40
2019-03-23T12:40:14.071Z,61.07
2019-03-23T12:42:43.065Z,55.73
2019-03-23T12:45:12.662Z,51.20
2019-03-23T12:47:41.721Z,53.57
2019-03-23T12:50:12.049Z,55.13
2019-03-23T12:52:41.194Z,57.93
2019-03-23T12:55:10.305Z,52.60
2019-03-23T12:57:39.396Z,53.57
2019-03-23T13:00:13.867Z,53.23
2019-03-23T13:02:42.866Z,48.90
2019-03-23T13:05:12.101Z,53.53
2019-03-23T13:07:41.077Z,53.93
2019-03-23T13:10:14.858Z,52.53
2019-03-23T13:12:44.118Z,52.87
2019-03-23T13:15:14.542Z,48.47
2019-03-23T13:17:43.611Z,45.70
2019-03-23T13:20:13.711Z,51.47
2019-03-23T13:22:42.844Z,52.07
2019-03-23T13:25:12.226Z,54.80
2019-03-23T13:27:42.199Z,51.97
2019-03-23T13:30:14.158Z,51.43
2019-03-23T13:32:43.274Z,50.60
2019-03-23T13:35:12.420Z,54.33
2019-03-23T13:37:41.469Z,52.87
2019-03-23T13:40:11.896Z,55.53
2019-03-23T13:42:41.158Z,56.70
2019-03-23T13:45:11.074Z,53.87
2019-03-23T13:47:40.819Z,53.20
2019-03-23T13:50:11.674Z,50.47
2019-03-23T13:52:40.762Z,54.30
2019-03-23T13:55:27.306Z,55.03
2019-03-23T13:57:58.071Z,52.37
2019-03-23T14:00:27.108Z,48.47
2019-03-23T14:02:56.165Z,49.10
2019-03-23T14:05:25.273Z,52.50
2019-03-23T14:07:54.275Z,58.27
2019-03-23T14:10:23.238Z,54.17
2019-03-23T14:12:52.271Z,56.23
2019-03-23T14:15:21.272Z,55.10
2019-03-23T14:17:50.318Z,55.50
2019-03-23T14:20:19.366Z,57.40
2019-03-23T14:22:48.369Z,59.47
2019-03-23T14:25:17.450Z,54.10
2019-03-23T14:27:46.442Z,58.23
2019-03-23T14:30:16.041Z,60.93
2019-03-23T14:32:45.143Z,64.33
2019-03-23T14:35:14.187Z,60.90
2019-03-23T14:37:43.175Z,61.57
2019-03-23T14:40:12.385Z,67.60
2019-03-23T14:42:41.517Z,69.13
2019-03-23T14:45:10.647Z,66.33
2019-03-23T14:47:39.680Z,66.63
2019-03-23T14:50:09.008Z,73.57
2019-03-23T14:52:38.046Z,64.77
2019-03-23T14:55:07.403Z,71.40
2019-03-23T14:57:36.502Z,67.47
2019-03-23T15:00:09.817Z,71.90
2019-03-23T15:02:38.794Z,76.60
2019-03-23T15:05:08.426Z,69.60
2019-03-23T15:07:37.407Z,69.07
2019-03-23T15:10:08.331Z,70.73
2019-03-23T15:12:37.435Z,67.50
2019-03-23T15:15:08.171Z,62.37
2019-03-23T15:17:37.141Z,66.97
2019-03-23T15:20:06.862Z,73.03
2019-03-23T15:22:35.915Z,68.37
2019-03-23T15:25:06.647Z,71.63
2019-03-23T15:27:35.675Z,67.67
2019-03-23T15:30:07.912Z,66.33
2019-03-23T15:32:36.942Z,67.80
2019-03-23T15:35:09.119Z,67.07
2019-03-23T15:37:38.094Z,69.17
2019-03-23T15:40:08.932Z,65.97
2019-03-23T15:42:37.999Z,68.97
2019-03-23T15:45:09.210Z,72.13
2019-03-23T15:47:38.288Z,70.97
2019-03-23T15:50:08.431Z,65.33
2019-03-23T15:52:37.398Z,63.57
2019-03-23T15:55:07.616Z,77.53
2019-03-23T15:57:36.589Z,69.80
2019-03-23T16:00:07.976Z,74.10
2019-03-23T16:02:37.039Z,70.70
2019-03-23T16:05:07.766Z,73.10
2019-03-23T16:07:36.728Z,72.30
2019-03-23T16:10:07.174Z,73.83
2019-03-23T16:12:37.778Z,74.00
2019-03-23T16:15:11.623Z,91.43
2019-03-23T16:17:40.931Z,75.53
2019-03-23T16:20:30.097Z,73.70
2019-03-23T16:22:59.144Z,77.43
2019-03-23T16:25:28.135Z,97.90
2019-03-23T16:27:57.135Z,78.93
2019-03-23T16:30:31.577Z,93.40
2019-03-23T16:33:00.539Z,163.07
2019-03-23T16:35:29.550Z,159.70
2019-03-23T16:37:58.511Z,109.87
2019-03-23T16:40:27.512Z,91.80
2019-03-23T16:42:56.677Z,73.10
2019-03-23T16:45:25.800Z,77.87
2019-03-23T16:47:55.312Z,83.57
2019-03-23T16:50:24.279Z,73.87
2019-03-23T16:52:53.250Z,74.40
2019-03-23T16:55:22.237Z,80.10
2019-03-23T16:57:51.254Z,72.37
2019-03-23T17:00:34.498Z,77.13
2019-03-23T17:03:04.361Z,71.97
2019-03-23T17:05:33.495Z,71.33
2019-03-23T17:08:02.542Z,75.13
2019-03-23T17:10:31.613Z,68.17
2019-03-23T17:13:00.578Z,67.87
2019-03-23T17:15:30.204Z,68.57
2019-03-23T17:17:59.186Z,68.80
2019-03-23T17:20:28.191Z,66.37
2019-03-23T17:22:57.183Z,66.00
2019-03-23T17:25:26.179Z,70.87
2019-03-23T17:27:55.171Z,62.43
2019-03-23T17:30:24.169Z,65.90
2019-03-23T17:32:53.150Z,66.53
2019-03-23T17:35:22.145Z,65.27
2019-03-23T17:37:51.114Z,67.53
2019-03-23T17:40:20.126Z,66.80
2019-03-23T17:42:49.292Z,71.47
2019-03-23T17:45:18.515Z,68.77
2019-03-23T17:47:47.716Z,69.43
2019-03-23T17:50:16.790Z,63.70
2019-03-23T17:52:46.100Z,70.27
2019-03-23T17:55:15.172Z,70.47
2019-03-23T17:57:44.244Z,76.53
2019-03-23T18:00:14.020Z,68.47
2019-03-23T18:02:43.052Z,74.13
2019-03-23T18:05:12.431Z,68.83
2019-03-23T18:07:41.435Z,76.47
2019-03-23T18:10:10.991Z,75.93
2019-03-23T18:12:40.038Z,74.40
2019-03-23T18:15:10.064Z,72.70
2019-03-23T18:17:39.295Z,67.77
2019-03-23T18:20:09.036Z,74.60
2019-03-23T18:22:38.074Z,78.03
2019-03-23T18:25:08.023Z,76.90
2019-03-23T18:27:37.045Z,79.30
2019-03-23T18:30:25.611Z,83.53
2019-03-23T18:32:54.592Z,79.90
2019-03-23T18:35:23.619Z,77.53
2019-03-23T18:37:52.595Z,75.73
2019-03-23T18:40:21.685Z,79.87
2019-03-23T18:42:50.688Z,75.50
2019-03-23T18:45:19.678Z,77.90
2019-03-23T18:47:48.673Z,85.23
2019-03-23T18:50:17.718Z,77.37
2019-03-23T18:52:46.694Z,83.20
2019-03-23T18:55:15.729Z,72.57
2019-03-23T18:57:44.891Z,78.83
2019-03-23T19:00:25.674Z,78.13
2019-03-23T19:02:54.780Z,77.97
2019-03-23T19:05:23.843Z,80.80
2019-03-23T19:07:52.831Z,80.23
2019-03-23T19:10:21.818Z,75.73
2019-03-23T19:12:50.914Z,72.70
2019-03-23T19:15:19.953Z,76.40
2019-03-23T19:17:49.021Z,72.60
2019-03-23T19:20:18.023Z,70.17
2019-03-23T19:22:47.008Z,67.40
2019-03-23T19:25:18.429Z,66.33
2019-03-23T19:27:49.066Z,68.03
2019-03-23T19:30:18.306Z,71.10
2019-03-23T19:32:47.272Z,63.33
2019-03-23T19:35:16.277Z,52.03
2019-03-23T19:37:45.324Z,52.27
2019-03-23T19:40:14.932Z,49.80
2019-03-23T19:42:44.051Z,52.00
2019-03-23T19:45:13.182Z,47.20
2019-03-23T19:47:42.366Z,49.60
2019-03-23T19:50:11.503Z,48.33
2019-03-23T19:52:40.498Z,50.00
2019-03-23T19:55:10.237Z,49.40
2019-03-23T19:57:39.302Z,50.37
2019-03-23T20:00:12.657Z,48.80
2019-03-23T20:02:41.810Z,47.97
2019-03-23T20:05:11.050Z,43.23
2019-03-23T20:07:40.060Z,44.70
2019-03-23T20:10:10.279Z,47.60
2019-03-23T20:12:39.357Z,47.17
2019-03-23T20:15:09.261Z,48.57
2019-03-23T20:17:38.259Z,45.43
2019-03-23T20:20:08.911Z,45.63
2019-03-23T20:22:37.975Z,44.03
2019-03-23T20:25:07.651Z,44.10
2019-03-23T20:27:36.782Z,42.87
2019-03-23T20:30:11.102Z,42.10
2019-03-23T20:32:40.452Z,36.07
2019-03-23T20:35:09.852Z,38.13
2019-03-23T20:37:38.930Z,38.03
2019-03-23T20:40:08.963Z,39.53
2019-03-23T20:42:37.952Z,34.70
2019-03-23T20:45:08.465Z,37.97
2019-03-23T20:47:41.598Z,35.13
2019-03-23T20:50:11.317Z,39.03
2019-03-23T20:52:41.433Z,39.17
2019-03-23T20:55:13.530Z,35.47
2019-03-23T20:57:42.555Z,29.03
2019-03-23T21:00:11.681Z,33.57
2019-03-23T21:02:40.667Z,32.20
2019-03-23T21:05:09.728Z,38.77
2019-03-23T21:07:38.710Z,27.00
2019-03-23T21:10:07.763Z,31.60
2019-03-23T21:12:36.831Z,30.23
2019-03-23T21:15:06.657Z,31.70
2019-03-23T21:17:35.653Z,28.03
2019-03-23T21:20:06.440Z,33.37
2019-03-23T21:22:35.469Z,28.90
2019-03-23T21:25:06.919Z,27.17
2019-03-23T21:27:35.918Z,31.37
2019-03-23T21:30:07.987Z,28.40
2019-03-23T21:32:36.976Z,30.57
2019-03-23T21:35:06.768Z,26.37
2019-03-23T21:37:36.084Z,27.97
2019-03-23T21:40:06.269Z,30.80
2019-03-23T21:42:35.270Z,25.57
2019-03-23T21:45:08.267Z,28.33
2019-03-23T21:47:37.275Z,23.90
2019-03-23T21:50:08.902Z,28.70
2019-03-23T21:52:37.959Z,26.03
2019-03-23T21:55:07.469Z,30.30
2019-03-23T21:57:36.725Z,26.63
2019-03-23T22:00:26.549Z,27.93
2019-03-23T22:02:55.607Z,28.27
2019-03-23T22:05:24.574Z,27.17
2019-03-23T22:07:53.566Z,26.93
2019-03-23T22:10:22.620Z,27.27
2019-03-23T22:12:51.668Z,26.23
2019-03-23T22:15:20.773Z,27.47
2019-03-23T22:17:49.751Z,27.37
2019-03-23T22:20:18.723Z,24.47
2019-03-23T22:22:47.935Z,25.87
2019-03-23T22:25:16.952Z,27.33
2019-03-23T22:27:45.907Z,28.13
2019-03-23T22:30:16.845Z,28.47
2019-03-23T22:32:45.841Z,27.37
2019-03-23T22:35:14.880Z,30.57
2019-03-23T22:37:43.878Z,29.37
2019-03-23T22:40:14.862Z,28.03
2019-03-23T22:42:43.862Z,28.67
2019-03-23T22:45:13.568Z,27.27
2019-03-23T22:47:42.634Z,27.17
2019-03-23T22:50:11.950Z,30.77
2019-03-23T22:52:40.949Z,27.50
2019-03-23T22:55:10.089Z,29.07
2019-03-23T22:57:39.167Z,28.17
2019-03-23T23:00:15.656Z,29.30
2019-03-23T23:02:44.715Z,30.40
2019-03-23T23:05:13.775Z,29.27
2019-03-23T23:07:42.923Z,28.43
2019-03-23T23:10:13.842Z,29.10
2019-03-23T23:12:42.915Z,27.03
2019-03-23T23:15:12.250Z,29.73
2019-03-23T23:17:41.225Z,29.67
2019-03-23T23:20:10.384Z,28.20
2019-03-23T23:22:39.351Z,31.90
2019-03-23T23:25:09.075Z,26.73
2019-03-23T23:27:38.118Z,29.33
2019-03-23T23:30:09.171Z,30.37
2019-03-23T23:32:38.221Z,30.40
2019-03-23T23:35:08.662Z,29.57
2019-03-23T23:37:37.699Z,26.87
2019-03-23T23:40:07.624Z,30.53
2019-03-23T23:42:36.608Z,31.90
2019-03-23T23:45:15.350Z,34.40
2019-03-23T23:47:38.217Z,33.90
2019-03-23T23:50:07.745Z,30.80
2019-03-23T23:52:37.255Z,27.27
2019-03-23T23:55:07.018Z,28.90
2019-03-23T23:57:35.978Z,33.43
